Archival Weather

Vermilion Rgnl

Danville, Illinois (KDNV)

Report from: Saturday, April 13, 2024 10:55 PM CDT
Current time: Sunday, July 14, 2024 5:31 AM CDT

Current weather – Weather history – Daily summaries
Weather forecast

Temperature16.4°C (61.5°F)
Dew point5.7°C (42.3°F)
Winds 12 kts (6.2 m/s, 13.8 mph) South (170°)
Wind gusts 17 kts (8.7 m/s, 19.6 mph)
Visibility10 mi. (16.1 km)
Clouds Sky clear
Altimeter29.91 in.Hg (1013 mB)
Relative humidity49 %
Density altitude312 ft. (95 m)
Remarks Fully automated report
Automated weather observing station with precipitation discriminator
Flight conditions Visual Meteorological Conditions
Raw dataKDNV 140355Z AUTO 17012G17KT 10SM CLR 16/06 A2991 RMK AO2 T01640057
An error has occurred. This application may no longer respond until reloaded. Reload 🗙